Time;durP1;ratioP1;P1;durP2;ratioP2;P2;SDS_P1;SDS_P2;PMS_P1;PMS_P2;Temp;Humidity;BMP_temperature;BMP_pressure;BME280_temperature;BME280_humidity;BME280_pressure;Samples;Min_cycle;Max_cycle;Signal;HPM_P1;HPM_P2
2022/04/04 00:00:40;;;;;;;9.40;3.63;;;3.80;99.90;;;;;;5091956;28;20068;-62
2022/04/04 00:03:05;;;;;;;6.55;2.97;;;3.90;99.90;;;;;;5093749;28;20117;-62
2022/04/04 00:05:31;;;;;;;9.43;3.53;;;4.50;99.90;;;;;;5075384;28;20040;-62
2022/04/04 00:07:57;;;;;;;5.25;2.47;;;3.90;99.90;;;;;;5091877;28;20492;-62
2022/04/04 00:10:22;;;;;;;5.43;2.58;;;3.90;99.90;;;;;;5092327;28;20036;-62
2022/04/04 00:12:48;;;;;;;8.00;2.97;;;4.40;99.90;;;;;;5091728;28;20040;-62
2022/04/04 00:15:14;;;;;;;7.20;3.30;;;4.00;99.90;;;;;;5092082;28;20085;-62
2022/04/04 00:17:40;;;;;;;8.85;2.95;;;4.00;99.90;;;;;;5096828;28;20085;-62
2022/04/04 00:20:07;;;;;;;8.45;2.63;;;4.00;99.90;;;;;;5112565;28;20055;-63
2022/04/04 00:22:33;;;;;;;7.88;3.35;;;4.00;99.90;;;;;;5095780;28;20119;-62
2022/04/04 00:24:59;;;;;;;6.70;3.10;;;4.00;99.90;;;;;;5111144;28;20464;-63
2022/04/04 00:27:24;;;;;;;7.60;3.47;;;4.10;99.90;;;;;;5107843;28;20042;-62
2022/04/04 00:29:50;;;;;;;7.13;3.30;;;4.20;99.90;;;;;;5093029;28;20078;-63
2022/04/04 00:32:15;;;;;;;8.55;3.42;;;4.90;99.90;;;;;;5091994;28;20048;-62
2022/04/04 00:34:41;;;;;;;9.15;3.58;;;4.20;99.90;;;;;;5074542;28;20420;-62
2022/04/04 00:37:06;;;;;;;6.28;3.53;;;4.20;99.90;;;;;;5090976;28;20086;-62
2022/04/04 00:39:32;;;;;;;9.38;3.72;;;4.20;99.90;;;;;;5073832;28;20032;-62
2022/04/04 00:41:58;;;;;;;9.38;4.40;;;4.30;99.90;;;;;;5095142;28;20408;-62
2022/04/04 00:44:25;;;;;;;10.57;4.30;;;4.30;99.90;;;;;;5094293;28;20480;-62
2022/04/04 00:46:51;;;;;;;8.45;4.00;;;4.30;99.90;;;;;;5109663;28;20054;-62
2022/04/04 00:49:17;;;;;;;8.45;4.53;;;4.40;99.90;;;;;;5112781;28;20476;-62
2022/04/04 00:51:43;;;;;;;8.77;4.15;;;4.40;99.90;;;;;;5112286;28;20039;-62
2022/04/04 00:54:08;;;;;;;10.13;4.75;;;4.50;99.90;;;;;;5090884;28;20039;-62
2022/04/04 00:56:36;;;;;;;10.30;5.47;;;4.50;99.90;;;;;;5091267;28;20060;-62
2022/04/04 00:59:05;;;;;;;10.50;5.65;;;4.50;99.90;;;;;;5108790;28;20036;-62
2022/04/04 01:01:31;;;;;;;9.25;5.32;;;4.60;99.90;;;;;;5093654;28;20085;-62
2022/04/04 01:03:56;;;;;;;11.38;5.93;;;4.60;99.90;;;;;;5111315;28;20039;-62
2022/04/04 01:06:22;;;;;;;10.55;5.90;;;4.70;99.90;;;;;;5110487;28;20427;-62
2022/04/04 01:08:48;;;;;;;10.10;6.13;;;4.70;99.90;;;;;;5099140;28;20036;-62
2022/04/04 01:11:14;;;;;;;14.48;7.18;;;4.90;99.90;;;;;;5094195;28;20113;-62
2022/04/04 01:13:47;;;;;;;12.40;6.75;;;5.10;99.90;;;;;;5111771;28;20040;-62
2022/04/04 01:16:12;;;;;;;10.38;7.13;;;4.80;99.90;;;;;;5111426;28;20039;-62
2022/04/04 01:18:38;;;;;;;11.43;7.95;;;4.80;99.90;;;;;;5094685;28;20085;-62
2022/04/04 01:21:04;;;;;;;15.35;7.05;;;4.90;99.90;;;;;;5111255;28;20040;-62
2022/04/04 01:23:40;;;;;;;11.07;7.30;;;4.80;99.90;;;;;;5093380;28;20051;-62
2022/04/04 01:26:07;;;;;;;12.82;7.30;;;5.00;99.90;;;;;;5091178;28;20571;-62
2022/04/04 01:28:33;;;;;;;10.75;6.75;;;4.90;99.90;;;;;;5090245;28;20050;-62
2022/04/04 01:30:59;;;;;;;14.65;8.07;;;5.00;99.90;;;;;;5090941;28;20979;-62
2022/04/04 01:33:25;;;;;;;17.45;8.70;;;5.00;99.90;;;;;;5090591;28;20047;-62
2022/04/04 01:35:52;;;;;;;12.63;8.18;;;5.10;99.90;;;;;;5090936;28;20032;-62
2022/04/04 01:38:17;;;;;;;13.32;7.43;;;5.20;99.90;;;;;;5107160;28;20044;-62
2022/04/04 01:40:43;;;;;;;13.15;8.15;;;5.20;99.90;;;;;;5111081;28;20035;-62
2022/04/04 01:43:09;;;;;;;14.45;8.00;;;5.20;99.90;;;;;;5110048;28;20096;-62
2022/04/04 01:48:19;;;;;;;13.52;9.25;;;5.20;99.90;;;;;;5111015;28;20058;-62
2022/04/04 01:50:45;;;;;;;14.43;9.18;;;5.80;99.90;;;;;;5111663;28;20392;-61
2022/04/04 01:53:25;;;;;;;15.77;8.50;;;5.40;99.90;;;;;;5093696;28;20395;-61
2022/04/04 01:55:52;;;;;;;14.60;7.78;;;5.40;99.90;;;;;;5091737;28;20056;-61
2022/04/04 01:58:18;;;;;;;13.50;8.57;;;;;;;;;;5093669;28;20071;-62
2022/04/04 02:00:44;;;;;;;14.07;8.52;;;;;;;;;;5094420;28;20381;-62
2022/04/04 02:03:11;;;;;;;14.90;8.82;;;;;;;;;;5113044;28;20392;-61
2022/04/04 02:05:37;;;;;;;13.93;7.45;;;5.60;99.90;;;;;;5116510;28;20157;-61
2022/04/04 02:08:03;;;;;;;18.42;9.25;;;5.60;99.90;;;;;;5097753;28;20043;-61
2022/04/04 02:10:29;;;;;;;14.35;8.85;;;5.60;99.90;;;;;;5114143;28;20130;-62
2022/04/04 02:12:55;;;;;;;14.27;9.00;;;5.70;99.90;;;;;;5114562;28;20172;-62
2022/04/04 02:15:20;;;;;;;14.23;8.65;;;5.80;99.90;;;;;;5097481;28;20032;-62
2022/04/04 02:17:46;;;;;;;12.27;7.95;;;5.60;99.90;;;;;;5096317;28;20120;-62
2022/04/04 02:20:12;;;;;;;12.65;7.90;;;5.70;99.90;;;;;;5094169;28;20040;-62
2022/04/04 02:22:37;;;;;;;13.77;8.88;;;6.60;99.90;;;;;;5094452;28;20370;-62
2022/04/04 02:25:03;;;;;;;16.00;8.90;;;5.70;99.90;;;;;;5093323;28;20044;-62
2022/04/04 02:27:30;;;;;;;14.82;8.40;;;5.80;99.90;;;;;;5096440;28;20039;-62
2022/04/04 02:29:57;;;;;;;14.35;8.73;;;5.90;99.90;;;;;;5114327;28;20039;-62
2022/04/04 02:32:23;;;;;;;16.05;8.98;;;5.80;99.90;;;;;;5113297;28;20043;-62
2022/04/04 02:34:49;;;;;;;15.27;8.98;;;5.80;99.90;;;;;;5097299;28;20039;-61
2022/04/04 02:37:16;;;;;;;13.68;9.20;;;6.00;99.90;;;;;;5114205;28;20042;-61
2022/04/04 02:39:42;;;;;;;15.57;9.55;;;5.80;99.90;;;;;;5113343;28;20039;-62
2022/04/04 02:42:08;;;;;;;17.42;9.77;;;6.80;99.90;;;;;;5114613;28;20080;-62
2022/04/04 02:44:34;;;;;;;14.27;9.40;;;5.80;99.90;;;;;;5076605;28;20040;-62
2022/04/04 02:47:00;;;;;;;16.17;9.85;;;5.90;99.90;;;;;;5092479;28;20506;-62
2022/04/04 02:49:29;;;;;;;17.63;10.98;;;6.10;99.90;;;;;;5093775;28;20090;-62
2022/04/04 02:51:58;;;;;;;16.23;9.45;;;6.00;99.90;;;;;;5092792;28;20048;-62
2022/04/04 02:54:24;;;;;;;15.38;10.02;;;6.00;99.90;;;;;;5094418;28;20495;-62
2022/04/04 02:56:50;;;;;;;14.05;10.27;;;6.00;99.90;;;;;;5106844;28;20393;-62
2022/04/04 02:59:16;;;;;;;17.10;10.55;;;6.10;99.90;;;;;;5112852;28;20047;-62
2022/04/04 03:01:48;;;;;;;13.50;9.30;;;5.90;99.90;;;;;;5096748;28;20510;-62
2022/04/04 03:04:15;;;;;;;18.75;10.35;;;5.90;99.90;;;;;;5113735;28;20507;-62
2022/04/04 03:06:40;;;;;;;18.45;10.73;;;5.80;99.90;;;;;;5112648;28;20039;-62
2022/04/04 03:09:07;;;;;;;19.98;10.68;;;6.20;99.90;;;;;;5096337;28;20399;-62
2022/04/04 03:11:33;;;;;;;16.80;10.25;;;6.20;99.90;;;;;;5111733;28;20059;-62
2022/04/04 03:13:58;;;;;;;16.90;10.80;;;6.90;99.90;;;;;;5112545;28;20491;-62
2022/04/04 03:16:24;;;;;;;17.88;11.30;;;5.90;99.90;;;;;;5114738;28;20114;-62
2022/04/04 03:18:49;;;;;;;17.70;11.60;;;5.80;99.90;;;;;;5113313;28;20040;-62
2022/04/04 03:21:15;;;;;;;26.27;12.50;;;5.90;99.90;;;;;;5112745;28;20046;-62
2022/04/04 03:23:41;;;;;;;19.85;12.32;;;5.70;99.90;;;;;;5113386;28;20038;-62
2022/04/04 03:26:09;;;;;;;15.00;10.65;;;5.90;99.90;;;;;;5085084;28;20039;-62
2022/04/04 03:28:34;;;;;;;18.17;12.00;;;5.60;99.90;;;;;;5075321;28;20145;-62
2022/04/04 03:31:00;;;;;;;16.90;10.90;;;5.60;99.90;;;;;;5093354;28;20040;-62
2022/04/04 03:33:26;;;;;;;20.33;11.55;;;5.80;99.90;;;;;;5092608;28;20051;-62
2022/04/04 03:35:51;;;;;;;21.42;11.05;;;5.70;99.90;;;;;;5091904;28;20068;-62
2022/04/04 03:38:17;;;;;;;19.40;11.73;;;5.70;99.90;;;;;;5092912;28;20036;-62
2022/04/04 03:40:44;;;;;;;21.17;11.88;;;5.70;99.90;;;;;;5092248;28;20051;-62
2022/04/04 03:43:10;;;;;;;19.17;10.38;;;5.70;99.90;;;;;;5090806;28;20405;-62
2022/04/04 03:45:36;;;;;;;16.60;9.98;;;5.50;99.90;;;;;;5092902;28;20047;-62
2022/04/04 03:48:02;;;;;;;13.50;8.98;;;5.50;99.90;;;;;;5091670;28;20043;-62
2022/04/04 03:50:28;;;;;;;16.52;9.35;;;6.30;99.90;;;;;;5092291;28;20048;-62
2022/04/04 03:52:56;;;;;;;16.55;9.93;;;5.70;99.90;;;;;;5092327;28;20054;-62
2022/04/04 03:55:25;;;;;;;13.75;8.02;;;5.60;99.90;;;;;;5091527;28;20044;-62
2022/04/04 03:57:52;;;;;;;16.48;8.27;;;5.60;99.90;;;;;;5111336;28;20511;-62
2022/04/04 04:00:19;;;;;;;12.18;7.72;;;5.50;99.90;;;;;;5112339;28;20043;-62
2022/04/04 04:02:45;;;;;;;16.95;8.85;;;5.50;99.90;;;;;;5094672;28;20043;-62
2022/04/04 04:05:12;;;;;;;15.82;9.57;;;5.60;99.90;;;;;;5112122;28;20046;-62
2022/04/04 04:07:37;;;;;;;15.40;8.57;;;5.70;99.90;;;;;;5114026;28;20040;-62
2022/04/04 04:10:03;;;;;;;13.65;8.10;;;5.60;99.90;;;;;;5083504;28;20047;-62
2022/04/04 04:12:29;;;;;;;15.35;8.50;;;5.50;99.90;;;;;;5093323;28;20044;-62
2022/04/04 04:14:55;;;;;;;16.80;9.30;;;5.70;99.90;;;;;;5092998;28;20047;-62
2022/04/04 04:17:22;;;;;;;16.77;10.82;;;5.60;99.90;;;;;;5092596;28;20036;-62
2022/04/04 04:22:33;;;;;;;16.60;8.23;;;5.40;99.90;;;;;;5091938;28;20048;-62
2022/04/04 04:24:59;;;;;;;17.38;9.77;;;5.70;99.90;;;;;;5102047;28;20083;-62
2022/04/04 04:27:25;;;;;;;16.83;9.95;;;5.70;99.90;;;;;;5112000;28;20484;-62
2022/04/04 04:29:52;;;;;;;17.40;9.75;;;5.50;99.90;;;;;;5112096;28;20089;-62
2022/04/04 04:32:18;;;;;;;17.98;9.27;;;5.80;99.90;;;;;;5091815;28;20048;-62
2022/04/04 04:34:48;;;;;;;17.42;9.45;;;5.40;99.90;;;;;;5092981;28;20535;-62
2022/04/04 04:37:16;;;;;;;13.80;9.18;;;5.50;99.90;;;;;;5092176;28;20086;-62
2022/04/04 04:39:41;;;;;;;20.13;9.48;;;5.60;99.90;;;;;;5098494;28;20066;-62
2022/04/04 04:42:07;;;;;;;16.08;9.68;;;5.40;99.90;;;;;;5094885;28;20075;-62
2022/04/04 04:44:33;;;;;;;20.52;9.70;;;5.40;99.90;;;;;;5112577;28;20036;-62
2022/04/04 04:46:58;;;;;;;18.52;10.52;;;6.50;99.90;;;;;;5111982;28;20046;-62
2022/04/04 04:49:26;;;;;;;18.20;8.93;;;5.60;99.90;;;;;;5108072;28;20097;-62
2022/04/04 04:51:52;;;;;;;21.13;11.02;;;5.60;99.90;;;;;;5092067;28;20075;-62
2022/04/04 04:54:19;;;;;;;15.80;8.95;;;5.50;99.90;;;;;;5093824;28;20365;-62
2022/04/04 04:56:45;;;;;;;13.80;9.25;;;5.50;99.90;;;;;;5091059;28;20105;-62
2022/04/04 04:59:11;;;;;;;14.80;8.93;;;5.30;99.90;;;;;;5073396;28;20450;-62
2022/04/04 05:01:37;;;;;;;13.68;9.07;;;5.50;99.90;;;;;;5074789;28;20062;-63
2022/04/04 05:04:02;;;;;;;15.23;9.00;;;5.50;99.90;;;;;;5091003;28;20480;-63
2022/04/04 05:06:28;;;;;;;16.45;9.63;;;5.30;99.90;;;;;;5111385;28;20038;-62
2022/04/04 05:08:59;;;;;;;11.70;7.93;;;5.40;99.90;;;;;;5112714;28;20605;-63
2022/04/04 05:11:25;;;;;;;14.15;7.60;;;5.50;99.90;;;;;;5112386;28;20043;-62
2022/04/04 05:13:51;;;;;;;16.65;7.38;;;5.50;99.90;;;;;;5110129;28;20036;-62
2022/04/04 05:16:17;;;;;;;13.07;7.25;;;5.30;99.90;;;;;;5094642;28;20051;-62
2022/04/04 05:18:44;;;;;;;10.75;6.22;;;5.20;99.90;;;;;;5111252;28;20118;-63
2022/04/04 05:21:11;;;;;;;10.57;5.13;;;5.20;99.90;;;;;;5111958;28;20116;-62
2022/04/04 05:23:38;;;;;;;10.85;6.13;;;5.20;99.90;;;;;;5111780;28;20049;-62
2022/04/04 05:26:04;;;;;;;9.82;4.88;;;5.00;99.90;;;;;;5092527;28;20040;-62
2022/04/04 05:28:30;;;;;;;7.47;3.67;;;5.10;99.90;;;;;;5089973;28;20496;-62
2022/04/04 05:30:56;;;;;;;12.20;4.88;;;5.10;99.90;;;;;;5090706;28;20052;-63
2022/04/04 05:33:22;;;;;;;11.20;4.57;;;5.00;99.90;;;;;;5094292;28;20040;-62
2022/04/04 05:35:48;;;;;;;8.38;4.07;;;5.00;99.90;;;;;;5107821;28;20077;-62
2022/04/04 05:38:14;;;;;;;11.25;4.38;;;4.90;99.90;;;;;;5115540;28;20035;-63
2022/04/04 05:40:41;;;;;;;7.82;3.58;;;4.90;99.90;;;;;;5115852;28;20050;-62
2022/04/04 05:43:07;;;;;;;6.00;2.80;;;4.90;99.90;;;;;;5115677;28;20051;-62
2022/04/04 05:45:35;;;;;;;6.85;2.75;;;4.90;99.90;;;;;;5116431;28;20118;-62
2022/04/04 05:48:02;;;;;;;6.80;3.20;;;4.80;99.90;;;;;;5113399;28;20522;-62
2022/04/04 05:50:28;;;;;;;7.90;3.13;;;4.80;99.90;;;;;;5116472;28;20080;-62
2022/04/04 05:52:54;;;;;;;8.35;3.50;;;;;;;;;;5114670;28;20046;-62
2022/04/04 05:55:20;;;;;;;8.35;2.72;;;;;;;;;;5115531;28;20122;-62
2022/04/04 05:57:46;;;;;;;7.38;2.70;;;;;;;;;;5096248;28;20096;-62
2022/04/04 06:00:13;;;;;;;8.75;2.45;;;;;;;;;;5095763;28;20489;-62
2022/04/04 06:02:40;;;;;;;8.15;2.60;;;;;;;;;;5095128;28;20128;-62
2022/04/04 06:05:07;;;;;;;6.70;2.60;;;;;;;;;;5079134;28;20105;-62
2022/04/04 06:07:33;;;;;;;9.77;2.90;;;;;;;;;;5096225;28;20031;-62
2022/04/04 06:09:59;;;;;;;6.60;2.60;;;;;;;;;;5106305;28;20399;-62
2022/04/04 06:12:25;;;;;;;8.88;3.17;;;;;;;;;;5100238;28;20511;-62
2022/04/04 06:14:51;;;;;;;7.00;2.90;;;;;;;;;;5078528;28;20484;-62
2022/04/04 06:17:18;;;;;;;10.02;3.60;;;;;;;;;;5102899;28;20090;-61
2022/04/04 06:19:44;;;;;;;12.48;4.30;;;;;;;;;;5081470;28;20047;-62
2022/04/04 06:22:10;;;;;;;11.63;5.00;;;;;;;;;;5095297;28;20119;-62
2022/04/04 06:24:36;;;;;;;10.45;5.05;;;;;;;;;;5094830;28;20127;-62
2022/04/04 06:27:02;;;;;;;16.90;5.07;;;;;;;;;;5100002;28;20392;-62
2022/04/04 06:29:28;;;;;;;15.90;5.28;;;;;;;;;;5100994;28;20523;-62
2022/04/04 06:31:56;;;;;;;14.05;6.95;;;;;;;;;;5102755;28;20036;-62
2022/04/04 06:34:24;;;;;;;14.60;5.53;;;;;;;;;;5104149;28;20058;-62
2022/04/04 06:36:51;;;;;;;13.90;6.28;;;;;;;;;;5091300;28;20040;-62
2022/04/04 06:39:17;;;;;;;13.35;6.18;;;;;;;;;;5106718;28;20051;-62
2022/04/04 06:41:44;;;;;;;16.90;9.43;;;;;;;;;;5093689;28;20435;-62
2022/04/04 06:44:10;;;;;;;10.43;5.78;;;;;;;;;;5094949;28;20736;-62
2022/04/04 06:46:36;;;;;;;14.50;9.07;;;;;;;;;;5102670;28;20507;-62
2022/04/04 06:49:06;;;;;;;11.90;7.53;;;;;;;;;;5106122;28;20051;-62
2022/04/04 06:51:35;;;;;;;15.23;8.23;;;;;;;;;;5109165;28;20043;-62
2022/04/04 06:54:03;;;;;;;12.50;6.80;;;;;;;;;;5090535;28;20043;-62
2022/04/04 06:56:30;;;;;;;19.60;11.65;;;;;;;;;;5110391;27;20059;-62
2022/04/04 06:58:56;;;;;;;19.17;13.02;;;;;;;;;;5093206;28;20051;-62
2022/04/04 07:01:22;;;;;;;19.65;11.63;;;;;;;;;;5110964;28;20176;-63
2022/04/04 07:03:48;;;;;;;16.17;9.88;;;;;;;;;;5092501;28;20105;-62
2022/04/04 07:06:15;;;;;;;18.23;9.45;;;;;;;;;;5096849;28;20070;-62
2022/04/04 07:08:41;;;;;;;22.73;11.02;;;5.60;99.90;;;;;;5104064;28;20068;-62
2022/04/04 07:11:10;;;;;;;15.68;9.10;;;5.60;99.90;;;;;;5097405;28;20079;-62
2022/04/04 07:13:36;;;;;;;14.77;8.05;;;5.50;99.90;;;;;;5098426;28;20080;-62
2022/04/04 07:16:03;;;;;;;13.68;8.32;;;5.50;99.90;;;;;;5087499;28;20119;-62
2022/04/04 07:18:28;;;;;;;17.95;10.35;;;5.60;99.90;;;;;;5106972;28;20044;-63
2022/04/04 07:20:54;;;;;;;19.88;10.57;;;5.60;99.90;;;;;;5106346;28;20077;-63
2022/04/04 07:23:20;;;;;;;14.68;8.48;;;5.60;99.90;;;;;;5091325;28;20516;-63
2022/04/04 07:25:47;;;;;;;17.67;8.85;;;5.60;99.90;;;;;;5110359;28;20043;-62
2022/04/04 07:28:14;;;;;;;14.48;8.77;;;5.70;99.90;;;;;;5097007;28;20134;-62
2022/04/04 07:30:40;;;;;;;16.45;9.07;;;5.70;99.90;;;;;;5104670;28;20048;-62
2022/04/04 07:33:08;;;;;;;16.83;8.63;;;5.70;99.90;;;;;;5094462;28;20051;-63
2022/04/04 07:35:33;;;;;;;17.73;8.77;;;5.70;99.90;;;;;;5100125;28;20055;-63
2022/04/04 07:37:59;;;;;;;19.45;8.35;;;5.80;99.90;;;;;;5076624;28;20089;-62
2022/04/04 07:40:26;;;;;;;17.45;7.75;;;;;;;;;;5098713;28;20104;-62
2022/04/04 07:42:52;;;;;;;13.98;6.68;;;5.80;99.90;;;;;;5102449;28;20400;-62
2022/04/04 07:45:18;;;;;;;14.73;7.40;;;5.80;99.90;;;;;;5103965;28;20048;-62
2022/04/04 07:47:45;;;;;;;14.48;6.85;;;5.90;99.90;;;;;;5101886;28;20040;-62
2022/04/04 07:50:13;;;;;;;12.70;7.15;;;5.90;99.90;;;;;;5104571;28;20478;-62
2022/04/04 07:52:40;;;;;;;13.68;6.25;;;5.90;99.90;;;;;;5107515;28;20062;-61
2022/04/04 07:55:07;;;;;;;8.98;5.80;;;5.90;99.90;;;;;;5105195;28;20066;-62
2022/04/04 07:57:32;;;;;;;11.38;6.30;;;5.90;99.90;;;;;;5106456;28;20052;-62
2022/04/04 07:59:58;;;;;;;12.40;6.47;;;6.00;99.90;;;;;;5111242;28;20050;-62
2022/04/04 08:02:24;;;;;;;10.05;5.60;;;5.90;99.90;;;;;;5095190;28;20027;-62
2022/04/04 08:04:50;;;;;;;12.13;5.78;;;5.90;99.90;;;;;;5098222;28;20035;-62
2022/04/04 08:07:18;;;;;;;11.00;5.82;;;6.00;99.90;;;;;;5091711;28;20138;-62
2022/04/04 08:09:43;;;;;;;10.88;5.80;;;6.00;99.90;;;;;;5091536;28;20055;-62
2022/04/04 08:12:09;;;;;;;12.45;6.00;;;6.00;99.90;;;;;;5095632;28;20441;-62
2022/04/04 08:14:36;;;;;;;15.43;8.65;;;6.00;99.90;;;;;;5099542;28;20023;-62
2022/04/04 08:17:03;;;;;;;9.48;5.60;;;6.00;99.90;;;;;;5103182;28;20040;-62
2022/04/04 08:19:29;;;;;;;9.27;5.15;;;6.10;99.90;;;;;;5107303;28;20407;-62
2022/04/04 08:21:55;;;;;;;10.50;5.70;;;6.10;99.90;;;;;;5098578;28;20484;-62
2022/04/04 08:24:22;;;;;;;12.80;8.95;;;6.10;99.90;;;;;;5094644;28;20111;-62
2022/04/04 08:26:48;;;;;;;13.15;5.80;;;;;;;;;;5094624;28;20492;-62
2022/04/04 08:29:14;;;;;;;10.65;5.57;;;;;;;;;;5106723;28;20054;-62
2022/04/04 08:31:41;;;;;;;14.40;7.55;;;;;;;;;;5095715;28;20658;-62
2022/04/04 08:34:07;;;;;;;10.95;6.97;;;;;;;;;;5107378;28;20453;-62
2022/04/04 08:36:33;;;;;;;15.20;7.40;;;6.30;99.90;;;;;;5103205;28;20480;-62
2022/04/04 08:38:59;;;;;;;15.20;7.35;;;6.30;99.90;;;;;;5102527;28;20031;-63
2022/04/04 08:41:25;;;;;;;9.93;4.53;;;6.30;99.90;;;;;;5096828;28;20044;-63
2022/04/04 08:43:56;;;;;;;11.57;7.00;;;6.30;99.90;;;;;;5103320;28;20055;-63
2022/04/04 08:46:23;;;;;;;9.82;4.43;;;6.40;99.90;;;;;;5092862;28;20039;-66
2022/04/04 08:48:49;;;;;;;13.23;5.47;;;;;;;;;;5103788;28;20479;-66
2022/04/04 08:51:16;;;;;;;9.57;4.38;;;;;;;;;;5088933;28;20558;-65
2022/04/04 08:53:42;;;;;;;9.48;3.80;;;;;;;;;;5103222;28;20051;-65
2022/04/04 08:56:09;;;;;;;9.23;3.92;;;;;;;;;;5108447;28;20404;-65
2022/04/04 08:58:36;;;;;;;7.78;4.18;;;;;;;;;;5100939;28;20067;-65
2022/04/04 09:01:03;;;;;;;8.27;3.45;;;;;;;;;;5076289;28;20122;-65
2022/04/04 09:03:32;;;;;;;8.40;4.03;;;;;;;;;;5099715;28;20442;-63
2022/04/04 09:05:59;;;;;;;7.47;3.80;;;;;;;;;;5097690;28;20083;-63
2022/04/04 09:08:26;;;;;;;9.10;3.47;;;;;;;;;;5095872;28;20400;-63
2022/04/04 09:10:56;;;;;;;10.93;4.00;;;;;;;;;;5105200;28;20065;-63
2022/04/04 09:13:27;;;;;;;8.25;3.72;;;6.90;99.90;;;;;;5090467;28;20044;-62
2022/04/04 09:15:58;;;;;;;8.88;3.28;;;7.20;99.90;;;;;;5086579;28;20655;-63
2022/04/04 09:18:42;;;;;;;7.40;3.60;;;6.90;99.90;;;;;;5101044;28;20119;-62
2022/04/04 09:21:09;;;;;;;8.65;3.30;;;6.90;99.90;;;;;;5082280;28;20036;-62
2022/04/04 09:23:50;;;;;;;9.60;4.50;;;6.70;99.90;;;;;;5097228;28;20570;-62
2022/04/04 09:26:34;;;;;;;7.25;3.22;;;6.70;99.90;;;;;;5092200;28;20419;-62
2022/04/04 09:29:09;;;;;;;9.27;3.53;;;6.80;99.90;;;;;;5089382;28;20467;-62
2022/04/04 09:31:37;;;;;;;7.70;2.97;;;;;;;;;;5108427;28;20530;-62
2022/04/04 09:34:07;;;;;;;7.93;3.33;;;;;;;;;;5105521;28;20044;-62
2022/04/04 09:36:33;;;;;;;8.10;3.33;;;;;;;;;;5105247;28;20067;-62
2022/04/04 09:39:05;;;;;;;7.57;3.20;;;7.00;99.90;;;;;;5102403;28;20167;-62
2022/04/04 09:41:31;;;;;;;8.70;2.90;;;7.10;99.90;;;;;;5099976;28;20538;-62
2022/04/04 09:43:59;;;;;;;8.98;3.30;;;7.20;99.90;;;;;;5102852;28;20036;-62
2022/04/04 09:46:35;;;;;;;8.55;3.15;;;7.20;99.90;;;;;;5107402;28;20071;-62
2022/04/04 09:49:20;;;;;;;7.95;3.00;;;7.00;99.90;;;;;;5101552;28;20040;-62
2022/04/04 09:51:51;;;;;;;5.78;2.47;;;7.00;99.90;;;;;;5101328;28;20051;-62
2022/04/04 09:54:28;;;;;;;8.88;3.03;;;7.40;99.90;;;;;;5107663;28;20043;-62
2022/04/04 09:57:15;;;;;;;8.50;2.95;;;7.00;99.90;;;;;;5109339;28;20060;-62
2022/04/04 09:59:42;;;;;;;8.55;3.78;;;7.00;99.90;;;;;;5106567;28;20070;-62
2022/04/04 10:02:11;;;;;;;8.13;3.25;;;7.00;99.90;;;;;;5107410;28;20130;-63
2022/04/04 10:04:38;;;;;;;9.00;2.75;;;7.00;99.90;;;;;;5096834;28;20170;-62
2022/04/04 10:07:08;;;;;;;8.40;2.70;;;7.10;99.90;;;;;;5107425;28;20127;-62
2022/04/04 10:09:35;;;;;;;10.35;3.05;;;7.10;99.90;;;;;;5084202;28;20114;-62
2022/04/04 10:12:03;;;;;;;10.73;2.88;;;7.10;99.90;;;;;;5106792;28;20510;-62
2022/04/04 10:14:31;;;;;;;9.82;3.85;;;7.10;99.90;;;;;;5091594;28;20028;-62
2022/04/04 10:16:57;;;;;;;11.13;3.70;;;7.10;99.90;;;;;;5107300;28;20040;-63
2022/04/04 10:19:27;;;;;;;6.28;2.13;;;7.10;99.90;;;;;;5111233;28;20061;-63
2022/04/04 10:21:53;;;;;;;8.25;2.55;;;7.10;99.90;;;;;;5110898;28;20114;-63
2022/04/04 10:24:19;;;;;;;7.20;2.35;;;8.10;99.90;;;;;;5078500;28;20166;-63
2022/04/04 10:26:48;;;;;;;7.00;1.83;;;7.30;99.90;;;;;;5111599;28;20043;-63
2022/04/04 10:29:16;;;;;;;7.72;2.25;;;7.40;99.90;;;;;;5111633;28;20436;-63
2022/04/04 10:31:50;;;;;;;4.75;1.77;;;7.00;99.90;;;;;;5110930;28;20036;-63
2022/04/04 10:34:19;;;;;;;5.95;2.03;;;7.20;99.90;;;;;;5099317;28;20044;-63
2022/04/04 10:37:00;;;;;;;7.50;3.45;;;7.50;99.90;;;;;;5109712;28;20050;-63
2022/04/04 10:39:43;;;;;;;6.53;2.40;;;7.20;99.90;;;;;;5084459;28;20505;-63
2022/04/04 10:42:27;;;;;;;4.88;2.03;;;7.30;99.90;;;;;;5110800;28;20492;-63
2022/04/04 10:45:12;;;;;;;6.88;2.10;;;7.30;99.90;;;;;;5093761;28;20095;-63
2022/04/04 10:47:42;;;;;;;4.90;2.05;;;7.30;99.90;;;;;;5103001;28;20096;-63
2022/04/04 10:50:30;;;;;;;6.32;2.45;;;7.30;99.90;;;;;;5111383;28;20048;-63
2022/04/04 10:53:01;;;;;;;7.15;2.08;;;7.40;99.90;;;;;;5106664;28;20129;-63
2022/04/04 10:55:30;;;;;;;6.03;2.80;;;7.40;99.90;;;;;;5110661;28;20043;-63
2022/04/04 10:58:17;;;;;;;7.63;1.92;;;7.40;99.90;;;;;;5092876;28;20177;-63
2022/04/04 11:00:58;;;;;;;5.38;2.10;;;7.40;99.90;;;;;;5109834;28;20118;-63
2022/04/04 11:03:27;;;;;;;5.20;1.95;;;7.50;99.90;;;;;;5110458;28;20127;-63
2022/04/04 11:09:26;;;;;;;5.45;2.22;;;7.70;99.90;;;;;;5103957;28;20389;-63
2022/04/04 11:11:58;;;;;;;6.03;1.50;;;7.60;99.90;;;;;;5109811;28;20035;-63
2022/04/04 11:14:27;;;;;;;5.13;2.03;;;;;;;;;;5099963;28;20495;-63
2022/04/04 11:17:11;;;;;;;5.20;1.58;;;;;;;;;;5089481;28;20531;-63
2022/04/04 11:20:00;;;;;;;6.03;2.50;;;;;;;;;;5093765;28;20399;-62
2022/04/04 11:22:27;;;;;;;6.57;2.20;;;;;;;;;;5110769;28;20048;-63
2022/04/04 11:25:03;;;;;;;5.38;2.00;;;;;;;;;;5093319;28;20054;-63
2022/04/04 11:27:29;;;;;;;8.00;1.88;;;;;;;;;;5105098;28;20404;-62
2022/04/04 11:29:55;;;;;;;5.75;2.42;;;;;;;;;;5089337;28;20036;-63
2022/04/04 11:32:25;;;;;;;8.30;3.17;;;;;;;;;;5072450;28;20133;-63
2022/04/04 11:34:55;;;;;;;7.60;2.72;;;8.00;99.90;;;;;;5093591;28;20043;-62
2022/04/04 11:40:13;;;;;;;7.28;2.65;;;;;;;;;;5101979;28;20040;-62
2022/04/04 11:42:40;;;;;;;6.32;2.28;;;;;;;;;;5110298;28;20161;-62
2022/04/04 11:45:08;;;;;;;8.35;3.33;;;;;;;;;;5091843;28;20564;-62
2022/04/04 11:47:39;;;;;;;7.35;2.20;;;;;;;;;;5110447;28;20044;-62
2022/04/04 11:50:24;;;;;;;;;;;;;;;;;;;;;
2022/04/04 11:53:40;;;;;;;;;;;;;;;;;;;;;
2022/04/04 11:55:47;;;;;;;7.25;3.35;;;;;;;;;;5107465;28;20058;-62
2022/04/04 11:58:15;;;;;;;6.63;3.15;;;;;;;;;;5092636;28;20048;-62
2022/04/04 12:00:53;;;;;;;8.55;3.67;;;;;;;;;;5107639;28;20039;-62
2022/04/04 12:03:19;;;;;;;7.65;3.88;;;;;;;;;;5107540;28;20168;-62
2022/04/04 12:05:47;;;;;;;9.75;3.42;;;;;;;;;;5110280;28;20043;-62
2022/04/04 12:08:15;;;;;;;7.90;3.53;;;;;;;;;;5090784;28;20043;-62
2022/04/04 12:10:42;;;;;;;14.63;4.05;;;8.30;99.90;;;;;;5093440;28;20079;-62
2022/04/04 12:13:11;;;;;;;7.53;3.33;;;8.30;99.90;;;;;;5109481;28;20046;-62
2022/04/04 12:15:40;;;;;;;8.13;4.07;;;8.30;99.90;;;;;;5109702;28;20040;-62
2022/04/04 12:18:07;;;;;;;7.95;3.72;;;8.30;99.90;;;;;;5106782;28;20039;-62
2022/04/04 12:20:44;;;;;;;10.00;4.18;;;8.40;99.90;;;;;;5092449;28;20047;-62
2022/04/04 12:26:04;;;;;;;8.52;3.45;;;8.40;99.90;;;;;;5091302;28;20040;-63
2022/04/04 12:28:33;;;;;;;10.00;4.28;;;8.50;99.90;;;;;;5107796;28;20046;-62
2022/04/04 12:31:13;;;;;;;7.05;3.53;;;8.50;99.90;;;;;;5094874;28;20130;-63
2022/04/04 12:33:39;;;;;;;7.78;3.33;;;8.50;99.90;;;;;;5111262;28;20031;-63
2022/04/04 12:36:05;;;;;;;7.65;3.38;;;8.50;99.90;;;;;;5108882;28;20047;-63
2022/04/04 12:38:36;;;;;;;8.85;3.00;;;8.60;99.90;;;;;;5109385;28;20122;-63
2022/04/04 12:41:13;;;;;;;7.05;3.40;;;8.60;99.90;;;;;;5109341;28;20545;-63
2022/04/04 12:43:41;;;;;;;6.65;3.38;;;8.70;99.90;;;;;;5102203;28;20044;-63
2022/04/04 12:46:21;;;;;;;12.57;4.55;;;9.00;99.90;;;;;;5089409;28;20036;-62
2022/04/04 12:48:47;;;;;;;8.40;3.83;;;8.90;99.90;;;;;;5088930;28;20044;-63
2022/04/04 12:51:26;;;;;;;11.70;4.55;;;9.80;99.90;;;;;;5090036;28;20389;-63
2022/04/04 12:53:53;;;;;;;9.07;4.35;;;8.90;99.90;;;;;;5088959;28;20093;-63
2022/04/04 12:56:20;;;;;;;9.80;3.67;;;8.70;99.90;;;;;;5088960;28;20058;-62
2022/04/04 12:59:02;;;;;;;7.80;4.00;;;9.10;99.90;;;;;;5104056;28;20040;-62
2022/04/04 13:01:28;;;;;;;9.45;4.55;;;9.10;99.90;;;;;;5088544;28;20133;-62
2022/04/04 13:03:54;;;;;;;10.75;3.85;;;9.20;99.90;;;;;;5088145;28;20122;-63
2022/04/04 13:06:20;;;;;;;10.10;5.05;;;9.10;99.90;;;;;;5088939;28;20047;-62
2022/04/04 13:08:57;;;;;;;10.52;3.47;;;9.20;99.90;;;;;;5071842;28;20039;-62
2022/04/04 13:11:24;;;;;;;10.90;4.78;;;9.00;99.90;;;;;;5071178;28;20043;-62
2022/04/04 13:14:05;;;;;;;15.30;4.90;;;9.10;99.90;;;;;;5072704;28;20396;-63
2022/04/04 13:16:39;;;;;;;9.45;3.83;;;9.00;99.90;;;;;;5089090;28;20039;-62
2022/04/04 13:19:07;;;;;;;11.73;4.78;;;9.10;99.90;;;;;;5088259;28;20081;-63
2022/04/04 13:21:34;;;;;;;10.48;4.70;;;9.10;99.90;;;;;;5072153;28;20040;-63
2022/04/04 13:24:00;;;;;;;12.80;5.25;;;9.40;99.90;;;;;;5088565;28;20040;-62
2022/04/04 13:26:26;;;;;;;12.35;5.03;;;9.30;99.90;;;;;;5088147;28;20101;-62
2022/04/04 13:28:53;;;;;;;9.55;5.18;;;9.40;99.90;;;;;;5090143;28;20067;-62
2022/04/04 13:31:19;;;;;;;11.02;5.65;;;9.10;99.90;;;;;;5089946;28;20040;-63